sensor_id;sensor_type;location;lat;lon;timestamp;P1;durP1;ratioP1;P2;durP2;ratioP2
71513;SDS011;59335;46.652;21.272;2023-10-08T00:03:01;5.20;;;2.17;;
71513;SDS011;59335;46.652;21.272;2023-10-08T00:06:08;4.20;;;1.90;;
71513;SDS011;59335;46.652;21.272;2023-10-08T00:09:15;5.53;;;2.60;;
71513;SDS011;59335;46.652;21.272;2023-10-08T00:12:18;4.53;;;2.10;;
71513;SDS011;59335;46.652;21.272;2023-10-08T00:15:21;4.53;;;2.10;;
71513;SDS011;59335;46.652;21.272;2023-10-08T00:18:28;4.95;;;2.42;;
71513;SDS011;59335;46.652;21.272;2023-10-08T00:21:30;4.72;;;2.53;;
71513;SDS011;59335;46.652;21.272;2023-10-08T00:24:35;5.65;;;2.30;;
71513;SDS011;59335;46.652;21.272;2023-10-08T00:27:43;4.85;;;2.15;;
71513;SDS011;59335;46.652;21.272;2023-10-08T00:30:47;4.83;;;2.30;;
71513;SDS011;59335;46.652;21.272;2023-10-08T00:33:50;4.30;;;1.92;;
71513;SDS011;59335;46.652;21.272;2023-10-08T00:36:53;4.10;;;2.10;;
71513;SDS011;59335;46.652;21.272;2023-10-08T00:39:56;5.97;;;2.50;;
71513;SDS011;59335;46.652;21.272;2023-10-08T00:42:59;3.97;;;1.95;;
71513;SDS011;59335;46.652;21.272;2023-10-08T00:46:06;4.70;;;2.00;;
71513;SDS011;59335;46.652;21.272;2023-10-08T00:49:25;5.40;;;2.20;;
71513;SDS011;59335;46.652;21.272;2023-10-08T00:52:50;4.60;;;2.17;;
71513;SDS011;59335;46.652;21.272;2023-10-08T00:56:02;5.07;;;2.00;;
71513;SDS011;59335;46.652;21.272;2023-10-08T00:59:09;4.38;;;2.10;;
71513;SDS011;59335;46.652;21.272;2023-10-08T01:02:16;5.10;;;2.37;;
71513;SDS011;59335;46.652;21.272;2023-10-08T01:05:22;4.57;;;2.08;;
71513;SDS011;59335;46.652;21.272;2023-10-08T01:08:39;4.95;;;2.28;;
71513;SDS011;59335;46.652;21.272;2023-10-08T01:12:06;4.82;;;2.30;;
71513;SDS011;59335;46.652;21.272;2023-10-08T01:15:26;4.75;;;2.08;;
71513;SDS011;59335;46.652;21.272;2023-10-08T01:18:32;4.43;;;2.00;;
71513;SDS011;59335;46.652;21.272;2023-10-08T01:21:38;4.90;;;2.20;;
71513;SDS011;59335;46.652;21.272;2023-10-08T01:24:42;4.65;;;2.05;;
71513;SDS011;59335;46.652;21.272;2023-10-08T01:27:45;4.85;;;2.25;;
71513;SDS011;59335;46.652;21.272;2023-10-08T01:30:48;5.00;;;2.53;;
71513;SDS011;59335;46.652;21.272;2023-10-08T01:33:56;5.13;;;2.03;;
71513;SDS011;59335;46.652;21.272;2023-10-08T01:36:59;4.82;;;2.20;;
71513;SDS011;59335;46.652;21.272;2023-10-08T01:40:06;4.75;;;2.15;;
71513;SDS011;59335;46.652;21.272;2023-10-08T01:43:10;5.53;;;2.50;;
71513;SDS011;59335;46.652;21.272;2023-10-08T01:46:16;3.65;;;1.80;;
71513;SDS011;59335;46.652;21.272;2023-10-08T01:49:18;4.80;;;2.23;;
71513;SDS011;59335;46.652;21.272;2023-10-08T01:52:24;5.18;;;2.00;;
71513;SDS011;59335;46.652;21.272;2023-10-08T01:55:27;4.10;;;2.00;;
71513;SDS011;59335;46.652;21.272;2023-10-08T01:58:36;4.15;;;2.00;;
71513;SDS011;59335;46.652;21.272;2023-10-08T02:01:42;4.63;;;2.15;;
71513;SDS011;59335;46.652;21.272;2023-10-08T02:04:46;4.70;;;2.10;;
71513;SDS011;59335;46.652;21.272;2023-10-08T02:07:49;4.18;;;1.77;;
71513;SDS011;59335;46.652;21.272;2023-10-08T02:10:53;4.18;;;1.98;;
71513;SDS011;59335;46.652;21.272;2023-10-08T02:13:56;5.05;;;2.20;;
71513;SDS011;59335;46.652;21.272;2023-10-08T02:16:59;4.05;;;1.88;;
71513;SDS011;59335;46.652;21.272;2023-10-08T02:20:08;4.90;;;2.37;;
71513;SDS011;59335;46.652;21.272;2023-10-08T02:23:11;5.57;;;2.10;;
71513;SDS011;59335;46.652;21.272;2023-10-08T02:26:14;4.93;;;2.30;;
71513;SDS011;59335;46.652;21.272;2023-10-08T02:29:19;5.07;;;2.30;;
71513;SDS011;59335;46.652;21.272;2023-10-08T02:32:22;4.85;;;2.38;;
71513;SDS011;59335;46.652;21.272;2023-10-08T02:35:24;4.20;;;1.90;;
71513;SDS011;59335;46.652;21.272;2023-10-08T02:38:28;5.25;;;2.03;;
71513;SDS011;59335;46.652;21.272;2023-10-08T02:41:32;4.50;;;2.15;;
71513;SDS011;59335;46.652;21.272;2023-10-08T02:44:37;4.70;;;1.95;;
71513;SDS011;59335;46.652;21.272;2023-10-08T02:47:44;3.85;;;1.83;;
71513;SDS011;59335;46.652;21.272;2023-10-08T02:50:47;4.23;;;2.00;;
71513;SDS011;59335;46.652;21.272;2023-10-08T02:53:50;4.80;;;2.17;;
71513;SDS011;59335;46.652;21.272;2023-10-08T02:56:53;4.68;;;2.00;;
71513;SDS011;59335;46.652;21.272;2023-10-08T03:00:05;4.05;;;2.20;;
71513;SDS011;59335;46.652;21.272;2023-10-08T03:03:18;4.97;;;2.30;;
71513;SDS011;59335;46.652;21.272;2023-10-08T03:06:22;4.30;;;2.03;;
71513;SDS011;59335;46.652;21.272;2023-10-08T03:09:26;4.55;;;2.15;;
71513;SDS011;59335;46.652;21.272;2023-10-08T03:12:35;3.92;;;1.90;;
71513;SDS011;59335;46.652;21.272;2023-10-08T03:15:40;4.38;;;1.95;;
71513;SDS011;59335;46.652;21.272;2023-10-08T03:18:49;5.05;;;2.03;;
71513;SDS011;59335;46.652;21.272;2023-10-08T03:21:53;4.20;;;2.00;;
71513;SDS011;59335;46.652;21.272;2023-10-08T03:24:58;4.75;;;2.03;;
71513;SDS011;59335;46.652;21.272;2023-10-08T03:28:16;3.75;;;1.90;;
71513;SDS011;59335;46.652;21.272;2023-10-08T03:31:20;4.40;;;2.08;;
71513;SDS011;59335;46.652;21.272;2023-10-08T03:34:34;4.57;;;1.95;;
71513;SDS011;59335;46.652;21.272;2023-10-08T03:37:37;4.23;;;2.00;;
71513;SDS011;59335;46.652;21.272;2023-10-08T03:40:48;4.82;;;2.13;;
71513;SDS011;59335;46.652;21.272;2023-10-08T03:43:52;4.97;;;2.40;;
71513;SDS011;59335;46.652;21.272;2023-10-08T03:46:58;5.13;;;2.10;;
71513;SDS011;59335;46.652;21.272;2023-10-08T03:50:01;4.95;;;2.17;;
71513;SDS011;59335;46.652;21.272;2023-10-08T03:53:08;4.63;;;2.00;;
71513;SDS011;59335;46.652;21.272;2023-10-08T03:56:14;4.97;;;2.10;;
71513;SDS011;59335;46.652;21.272;2023-10-08T03:59:22;4.03;;;1.80;;
71513;SDS011;59335;46.652;21.272;2023-10-08T04:02:34;4.32;;;2.05;;
71513;SDS011;59335;46.652;21.272;2023-10-08T04:05:44;4.40;;;1.90;;
71513;SDS011;59335;46.652;21.272;2023-10-08T04:08:59;4.83;;;2.13;;
71513;SDS011;59335;46.652;21.272;2023-10-08T04:12:12;3.70;;;1.88;;
71513;SDS011;59335;46.652;21.272;2023-10-08T04:15:20;4.30;;;1.88;;
71513;SDS011;59335;46.652;21.272;2023-10-08T04:18:23;4.00;;;1.77;;
71513;SDS011;59335;46.652;21.272;2023-10-08T04:21:26;4.47;;;1.90;;
71513;SDS011;59335;46.652;21.272;2023-10-08T04:24:36;4.00;;;2.00;;
71513;SDS011;59335;46.652;21.272;2023-10-08T04:27:39;4.13;;;1.90;;
71513;SDS011;59335;46.652;21.272;2023-10-08T04:30:42;4.15;;;2.05;;
71513;SDS011;59335;46.652;21.272;2023-10-08T04:33:47;4.90;;;2.30;;
71513;SDS011;59335;46.652;21.272;2023-10-08T04:36:50;4.28;;;1.92;;
71513;SDS011;59335;46.652;21.272;2023-10-08T04:39:56;4.40;;;1.87;;
71513;SDS011;59335;46.652;21.272;2023-10-08T04:43:02;4.53;;;2.10;;
71513;SDS011;59335;46.652;21.272;2023-10-08T04:46:05;3.97;;;1.98;;
71513;SDS011;59335;46.652;21.272;2023-10-08T04:49:21;4.78;;;1.95;;
71513;SDS011;59335;46.652;21.272;2023-10-08T04:52:30;5.15;;;2.20;;
71513;SDS011;59335;46.652;21.272;2023-10-08T04:55:36;4.27;;;2.10;;
71513;SDS011;59335;46.652;21.272;2023-10-08T04:58:44;5.15;;;2.22;;
71513;SDS011;59335;46.652;21.272;2023-10-08T05:01:51;4.13;;;1.80;;
71513;SDS011;59335;46.652;21.272;2023-10-08T05:05:12;4.68;;;1.90;;
71513;SDS011;59335;46.652;21.272;2023-10-08T05:08:15;5.10;;;2.05;;
71513;SDS011;59335;46.652;21.272;2023-10-08T05:11:31;4.43;;;2.00;;
71513;SDS011;59335;46.652;21.272;2023-10-08T05:15:09;4.60;;;2.22;;
71513;SDS011;59335;46.652;21.272;2023-10-08T05:18:15;4.32;;;1.95;;
71513;SDS011;59335;46.652;21.272;2023-10-08T05:21:21;4.85;;;2.28;;
71513;SDS011;59335;46.652;21.272;2023-10-08T05:24:49;4.60;;;2.20;;
71513;SDS011;59335;46.652;21.272;2023-10-08T05:28:28;4.57;;;1.80;;
71513;SDS011;59335;46.652;21.272;2023-10-08T05:31:33;5.57;;;2.17;;
71513;SDS011;59335;46.652;21.272;2023-10-08T05:34:49;4.28;;;1.90;;
71513;SDS011;59335;46.652;21.272;2023-10-08T05:38:18;4.22;;;2.05;;
71513;SDS011;59335;46.652;21.272;2023-10-08T05:41:27;4.20;;;2.10;;
71513;SDS011;59335;46.652;21.272;2023-10-08T05:44:31;4.77;;;2.00;;
71513;SDS011;59335;46.652;21.272;2023-10-08T05:47:43;4.35;;;2.33;;
71513;SDS011;59335;46.652;21.272;2023-10-08T05:51:06;4.25;;;1.90;;
71513;SDS011;59335;46.652;21.272;2023-10-08T05:54:17;4.13;;;1.80;;
71513;SDS011;59335;46.652;21.272;2023-10-08T05:57:34;4.28;;;2.10;;
71513;SDS011;59335;46.652;21.272;2023-10-08T06:00:49;4.37;;;1.90;;
71513;SDS011;59335;46.652;21.272;2023-10-08T06:03:52;4.40;;;2.10;;
71513;SDS011;59335;46.652;21.272;2023-10-08T06:07:24;4.93;;;1.98;;
71513;SDS011;59335;46.652;21.272;2023-10-08T06:10:36;4.18;;;2.00;;
71513;SDS011;59335;46.652;21.272;2023-10-08T06:13:39;5.10;;;1.88;;
71513;SDS011;59335;46.652;21.272;2023-10-08T06:16:53;3.80;;;1.80;;
71513;SDS011;59335;46.652;21.272;2023-10-08T06:20:15;4.75;;;2.40;;
71513;SDS011;59335;46.652;21.272;2023-10-08T06:23:19;3.92;;;1.80;;
71513;SDS011;59335;46.652;21.272;2023-10-08T06:26:22;4.18;;;1.90;;
71513;SDS011;59335;46.652;21.272;2023-10-08T06:29:26;4.93;;;1.88;;
71513;SDS011;59335;46.652;21.272;2023-10-08T06:32:32;4.33;;;2.00;;
71513;SDS011;59335;46.652;21.272;2023-10-08T06:35:35;4.40;;;1.90;;
71513;SDS011;59335;46.652;21.272;2023-10-08T06:38:39;4.13;;;1.70;;
71513;SDS011;59335;46.652;21.272;2023-10-08T06:41:43;3.92;;;1.80;;
71513;SDS011;59335;46.652;21.272;2023-10-08T06:44:53;4.40;;;1.77;;
71513;SDS011;59335;46.652;21.272;2023-10-08T06:48:00;3.93;;;1.60;;
71513;SDS011;59335;46.652;21.272;2023-10-08T06:51:09;4.25;;;1.80;;
71513;SDS011;59335;46.652;21.272;2023-10-08T06:54:20;4.55;;;1.98;;
71513;SDS011;59335;46.652;21.272;2023-10-08T06:57:24;4.25;;;2.10;;
71513;SDS011;59335;46.652;21.272;2023-10-08T07:00:28;4.10;;;1.98;;
71513;SDS011;59335;46.652;21.272;2023-10-08T07:03:42;3.97;;;2.00;;
71513;SDS011;59335;46.652;21.272;2023-10-08T07:06:45;4.68;;;2.17;;
71513;SDS011;59335;46.652;21.272;2023-10-08T07:09:49;4.47;;;2.03;;
71513;SDS011;59335;46.652;21.272;2023-10-08T07:12:54;3.58;;;1.60;;
71513;SDS011;59335;46.652;21.272;2023-10-08T07:15:57;4.57;;;1.92;;
71513;SDS011;59335;46.652;21.272;2023-10-08T07:19:00;4.57;;;2.23;;
71513;SDS011;59335;46.652;21.272;2023-10-08T07:22:18;4.47;;;2.10;;
71513;SDS011;59335;46.652;21.272;2023-10-08T07:25:25;4.93;;;2.00;;
71513;SDS011;59335;46.652;21.272;2023-10-08T07:28:38;5.22;;;2.10;;
71513;SDS011;59335;46.652;21.272;2023-10-08T07:31:44;3.88;;;1.70;;
71513;SDS011;59335;46.652;21.272;2023-10-08T07:34:56;3.90;;;1.70;;
71513;SDS011;59335;46.652;21.272;2023-10-08T07:38:25;4.10;;;1.88;;
71513;SDS011;59335;46.652;21.272;2023-10-08T07:41:32;3.65;;;1.80;;
71513;SDS011;59335;46.652;21.272;2023-10-08T07:44:36;4.53;;;1.92;;
71513;SDS011;59335;46.652;21.272;2023-10-08T07:47:41;4.63;;;1.90;;
71513;SDS011;59335;46.652;21.272;2023-10-08T07:50:45;3.63;;;1.80;;
71513;SDS011;59335;46.652;21.272;2023-10-08T07:53:49;3.42;;;1.80;;
71513;SDS011;59335;46.652;21.272;2023-10-08T07:56:58;3.92;;;1.77;;
71513;SDS011;59335;46.652;21.272;2023-10-08T08:00:15;4.05;;;2.03;;
71513;SDS011;59335;46.652;21.272;2023-10-08T08:03:24;5.07;;;2.17;;
71513;SDS011;59335;46.652;21.272;2023-10-08T08:06:27;4.17;;;2.10;;
71513;SDS011;59335;46.652;21.272;2023-10-08T08:09:33;2.97;;;1.40;;
71513;SDS011;59335;46.652;21.272;2023-10-08T08:12:40;4.18;;;1.77;;
71513;SDS011;59335;46.652;21.272;2023-10-08T08:15:44;4.45;;;1.90;;
71513;SDS011;59335;46.652;21.272;2023-10-08T08:18:54;4.10;;;1.83;;
71513;SDS011;59335;46.652;21.272;2023-10-08T08:22:01;4.57;;;2.20;;
71513;SDS011;59335;46.652;21.272;2023-10-08T08:25:05;4.10;;;2.03;;
71513;SDS011;59335;46.652;21.272;2023-10-08T08:28:18;4.43;;;1.80;;
71513;SDS011;59335;46.652;21.272;2023-10-08T08:31:23;3.78;;;1.73;;
71513;SDS011;59335;46.652;21.272;2023-10-08T08:34:27;4.80;;;2.17;;
71513;SDS011;59335;46.652;21.272;2023-10-08T08:37:30;5.50;;;2.00;;
71513;SDS011;59335;46.652;21.272;2023-10-08T08:40:33;4.22;;;1.90;;
71513;SDS011;59335;46.652;21.272;2023-10-08T08:43:36;4.15;;;1.90;;
71513;SDS011;59335;46.652;21.272;2023-10-08T08:46:39;4.07;;;2.00;;
71513;SDS011;59335;46.652;21.272;2023-10-08T08:49:42;4.43;;;2.20;;
71513;SDS011;59335;46.652;21.272;2023-10-08T08:52:45;4.50;;;2.20;;
71513;SDS011;59335;46.652;21.272;2023-10-08T08:55:49;4.38;;;2.00;;
71513;SDS011;59335;46.652;21.272;2023-10-08T08:58:54;4.63;;;2.00;;
71513;SDS011;59335;46.652;21.272;2023-10-08T09:01:59;4.32;;;2.03;;
71513;SDS011;59335;46.652;21.272;2023-10-08T09:05:03;5.07;;;2.33;;
71513;SDS011;59335;46.652;21.272;2023-10-08T09:08:27;3.53;;;1.73;;
71513;SDS011;59335;46.652;21.272;2023-10-08T09:11:31;4.13;;;1.70;;
71513;SDS011;59335;46.652;21.272;2023-10-08T09:14:35;4.57;;;2.00;;
71513;SDS011;59335;46.652;21.272;2023-10-08T09:17:39;3.63;;;1.70;;
71513;SDS011;59335;46.652;21.272;2023-10-08T09:20:42;3.95;;;1.88;;
71513;SDS011;59335;46.652;21.272;2023-10-08T09:23:49;3.50;;;1.60;;
71513;SDS011;59335;46.652;21.272;2023-10-08T09:26:54;3.95;;;1.90;;
71513;SDS011;59335;46.652;21.272;2023-10-08T09:29:58;4.20;;;2.03;;
71513;SDS011;59335;46.652;21.272;2023-10-08T09:33:01;3.95;;;2.00;;
71513;SDS011;59335;46.652;21.272;2023-10-08T09:36:05;4.35;;;1.98;;
71513;SDS011;59335;46.652;21.272;2023-10-08T09:39:12;4.50;;;2.10;;
71513;SDS011;59335;46.652;21.272;2023-10-08T09:42:25;4.70;;;1.70;;
71513;SDS011;59335;46.652;21.272;2023-10-08T09:45:28;4.50;;;1.70;;
71513;SDS011;59335;46.652;21.272;2023-10-08T09:48:33;4.35;;;2.10;;
71513;SDS011;59335;46.652;21.272;2023-10-08T09:51:40;4.75;;;2.13;;
71513;SDS011;59335;46.652;21.272;2023-10-08T09:54:43;4.43;;;2.13;;
71513;SDS011;59335;46.652;21.272;2023-10-08T09:57:51;4.30;;;2.10;;
71513;SDS011;59335;46.652;21.272;2023-10-08T10:00:55;3.63;;;1.75;;
71513;SDS011;59335;46.652;21.272;2023-10-08T10:04:02;3.83;;;1.95;;
71513;SDS011;59335;46.652;21.272;2023-10-08T10:07:09;4.07;;;1.90;;
71513;SDS011;59335;46.652;21.272;2023-10-08T10:10:26;4.33;;;1.93;;
71513;SDS011;59335;46.652;21.272;2023-10-08T10:13:45;4.18;;;2.03;;
71513;SDS011;59335;46.652;21.272;2023-10-08T10:20:46;4.00;;;1.90;;
71513;SDS011;59335;46.652;21.272;2023-10-08T10:23:54;3.88;;;1.83;;
71513;SDS011;59335;46.652;21.272;2023-10-08T10:27:11;5.67;;;2.00;;
71513;SDS011;59335;46.652;21.272;2023-10-08T10:30:16;4.72;;;2.20;;
71513;SDS011;59335;46.652;21.272;2023-10-08T10:33:31;4.97;;;1.90;;
71513;SDS011;59335;46.652;21.272;2023-10-08T10:36:36;5.40;;;1.80;;
71513;SDS011;59335;46.652;21.272;2023-10-08T10:39:40;3.97;;;2.00;;
71513;SDS011;59335;46.652;21.272;2023-10-08T10:42:47;4.93;;;2.27;;
71513;SDS011;59335;46.652;21.272;2023-10-08T10:45:55;4.50;;;2.10;;
71513;SDS011;59335;46.652;21.272;2023-10-08T10:48:59;4.28;;;1.90;;
71513;SDS011;59335;46.652;21.272;2023-10-08T10:52:28;4.47;;;2.15;;
71513;SDS011;59335;46.652;21.272;2023-10-08T10:55:35;4.05;;;1.70;;
71513;SDS011;59335;46.652;21.272;2023-10-08T10:58:41;4.30;;;1.80;;
71513;SDS011;59335;46.652;21.272;2023-10-08T11:01:44;4.25;;;1.80;;
71513;SDS011;59335;46.652;21.272;2023-10-08T11:05:08;4.50;;;1.80;;
71513;SDS011;59335;46.652;21.272;2023-10-08T11:08:22;4.18;;;2.00;;
71513;SDS011;59335;46.652;21.272;2023-10-08T11:11:28;4.57;;;2.08;;
71513;SDS011;59335;46.652;21.272;2023-10-08T11:14:32;3.97;;;1.77;;
71513;SDS011;59335;46.652;21.272;2023-10-08T11:17:35;4.47;;;1.83;;
71513;SDS011;59335;46.652;21.272;2023-10-08T11:20:39;3.53;;;1.60;;
71513;SDS011;59335;46.652;21.272;2023-10-08T11:23:46;4.13;;;1.70;;
71513;SDS011;59335;46.652;21.272;2023-10-08T11:27:02;5.28;;;2.10;;
71513;SDS011;59335;46.652;21.272;2023-10-08T11:30:18;5.60;;;2.37;;
71513;SDS011;59335;46.652;21.272;2023-10-08T11:33:22;4.25;;;1.70;;
71513;SDS011;59335;46.652;21.272;2023-10-08T11:36:26;3.80;;;1.85;;
71513;SDS011;59335;46.652;21.272;2023-10-08T11:39:31;4.25;;;1.70;;
71513;SDS011;59335;46.652;21.272;2023-10-08T11:42:47;4.15;;;1.80;;
71513;SDS011;59335;46.652;21.272;2023-10-08T11:45:53;4.23;;;1.87;;
71513;SDS011;59335;46.652;21.272;2023-10-08T11:48:56;4.43;;;1.80;;
71513;SDS011;59335;46.652;21.272;2023-10-08T11:52:00;4.85;;;1.95;;
71513;SDS011;59335;46.652;21.272;2023-10-08T11:55:03;4.25;;;1.90;;
71513;SDS011;59335;46.652;21.272;2023-10-08T11:58:08;4.15;;;1.80;;
71513;SDS011;59335;46.652;21.272;2023-10-08T12:01:14;4.53;;;1.80;;
71513;SDS011;59335;46.652;21.272;2023-10-08T12:04:18;3.50;;;1.65;;
71513;SDS011;59335;46.652;21.272;2023-10-08T12:07:22;6.15;;;1.75;;
71513;SDS011;59335;46.652;21.272;2023-10-08T12:10:30;4.85;;;1.60;;
71513;SDS011;59335;46.652;21.272;2023-10-08T12:13:40;5.57;;;2.00;;
71513;SDS011;59335;46.652;21.272;2023-10-08T12:16:47;4.23;;;1.50;;
71513;SDS011;59335;46.652;21.272;2023-10-08T12:19:49;3.38;;;1.50;;
71513;SDS011;59335;46.652;21.272;2023-10-08T12:22:55;4.40;;;1.67;;
71513;SDS011;59335;46.652;21.272;2023-10-08T12:25:58;2.95;;;1.50;;
71513;SDS011;59335;46.652;21.272;2023-10-08T12:29:02;4.78;;;1.88;;
71513;SDS011;59335;46.652;21.272;2023-10-08T12:32:05;4.10;;;1.90;;
71513;SDS011;59335;46.652;21.272;2023-10-08T12:35:20;4.38;;;1.95;;
71513;SDS011;59335;46.652;21.272;2023-10-08T12:38:24;4.25;;;1.80;;
71513;SDS011;59335;46.652;21.272;2023-10-08T12:41:30;4.07;;;1.65;;
71513;SDS011;59335;46.652;21.272;2023-10-08T12:44:34;4.20;;;1.80;;
71513;SDS011;59335;46.652;21.272;2023-10-08T12:47:39;5.10;;;1.70;;
71513;SDS011;59335;46.652;21.272;2023-10-08T12:50:42;4.32;;;1.90;;
71513;SDS011;59335;46.652;21.272;2023-10-08T12:53:46;5.80;;;1.80;;
71513;SDS011;59335;46.652;21.272;2023-10-08T12:57:02;3.95;;;1.60;;
71513;SDS011;59335;46.652;21.272;2023-10-08T13:00:11;3.72;;;1.60;;
71513;SDS011;59335;46.652;21.272;2023-10-08T13:03:16;3.97;;;1.70;;
71513;SDS011;59335;46.652;21.272;2023-10-08T13:06:27;4.72;;;1.80;;
71513;SDS011;59335;46.652;21.272;2023-10-08T13:09:34;4.40;;;2.00;;
71513;SDS011;59335;46.652;21.272;2023-10-08T13:12:41;4.75;;;1.95;;
71513;SDS011;59335;46.652;21.272;2023-10-08T13:15:45;3.35;;;1.42;;
71513;SDS011;59335;46.652;21.272;2023-10-08T13:18:52;4.00;;;1.70;;
71513;SDS011;59335;46.652;21.272;2023-10-08T13:22:00;3.70;;;1.50;;
71513;SDS011;59335;46.652;21.272;2023-10-08T13:25:06;3.28;;;1.38;;
71513;SDS011;59335;46.652;21.272;2023-10-08T13:28:12;3.65;;;1.48;;
71513;SDS011;59335;46.652;21.272;2023-10-08T13:31:18;3.47;;;1.50;;
71513;SDS011;59335;46.652;21.272;2023-10-08T13:34:24;3.33;;;1.50;;
71513;SDS011;59335;46.652;21.272;2023-10-08T13:37:33;3.25;;;1.48;;
71513;SDS011;59335;46.652;21.272;2023-10-08T13:40:39;4.28;;;1.67;;
71513;SDS011;59335;46.652;21.272;2023-10-08T13:44:04;3.33;;;1.40;;
71513;SDS011;59335;46.652;21.272;2023-10-08T13:47:11;3.60;;;1.52;;
71513;SDS011;59335;46.652;21.272;2023-10-08T13:50:20;3.40;;;1.50;;
71513;SDS011;59335;46.652;21.272;2023-10-08T13:53:25;4.00;;;1.70;;
71513;SDS011;59335;46.652;21.272;2023-10-08T13:56:33;4.03;;;1.60;;
71513;SDS011;59335;46.652;21.272;2023-10-08T13:59:42;3.53;;;1.60;;
71513;SDS011;59335;46.652;21.272;2023-10-08T14:02:47;3.67;;;1.58;;
71513;SDS011;59335;46.652;21.272;2023-10-08T14:05:59;3.90;;;1.53;;
71513;SDS011;59335;46.652;21.272;2023-10-08T14:09:08;3.42;;;1.58;;
71513;SDS011;59335;46.652;21.272;2023-10-08T14:12:16;3.10;;;1.50;;
71513;SDS011;59335;46.652;21.272;2023-10-08T14:15:21;3.85;;;1.65;;
71513;SDS011;59335;46.652;21.272;2023-10-08T14:18:29;3.47;;;1.50;;
71513;SDS011;59335;46.652;21.272;2023-10-08T14:21:42;4.00;;;1.80;;
71513;SDS011;59335;46.652;21.272;2023-10-08T14:24:58;3.28;;;1.40;;
71513;SDS011;59335;46.652;21.272;2023-10-08T14:28:03;3.60;;;1.30;;
71513;SDS011;59335;46.652;21.272;2023-10-08T14:31:13;3.85;;;1.60;;
71513;SDS011;59335;46.652;21.272;2023-10-08T14:34:21;3.35;;;1.45;;
71513;SDS011;59335;46.652;21.272;2023-10-08T14:37:47;3.47;;;1.63;;
71513;SDS011;59335;46.652;21.272;2023-10-08T14:41:11;2.83;;;1.40;;
71513;SDS011;59335;46.652;21.272;2023-10-08T14:44:34;3.90;;;1.40;;
71513;SDS011;59335;46.652;21.272;2023-10-08T14:47:39;3.35;;;1.30;;
71513;SDS011;59335;46.652;21.272;2023-10-08T14:50:46;4.22;;;1.33;;
71513;SDS011;59335;46.652;21.272;2023-10-08T14:53:50;4.43;;;1.60;;
71513;SDS011;59335;46.652;21.272;2023-10-08T14:56:56;3.40;;;1.42;;
71513;SDS011;59335;46.652;21.272;2023-10-08T15:00:02;3.38;;;1.30;;
71513;SDS011;59335;46.652;21.272;2023-10-08T15:03:09;4.38;;;1.70;;
71513;SDS011;59335;46.652;21.272;2023-10-08T15:06:17;3.25;;;1.50;;
71513;SDS011;59335;46.652;21.272;2023-10-08T15:09:23;3.60;;;1.73;;
71513;SDS011;59335;46.652;21.272;2023-10-08T15:12:28;4.07;;;1.70;;
71513;SDS011;59335;46.652;21.272;2023-10-08T15:15:38;4.00;;;1.40;;
71513;SDS011;59335;46.652;21.272;2023-10-08T15:18:43;3.13;;;1.30;;
71513;SDS011;59335;46.652;21.272;2023-10-08T15:21:48;3.83;;;1.50;;
71513;SDS011;59335;46.652;21.272;2023-10-08T15:24:56;3.83;;;1.43;;
71513;SDS011;59335;46.652;21.272;2023-10-08T15:27:59;4.22;;;1.35;;
71513;SDS011;59335;46.652;21.272;2023-10-08T15:31:04;3.13;;;1.30;;
71513;SDS011;59335;46.652;21.272;2023-10-08T15:34:08;3.92;;;1.50;;
71513;SDS011;59335;46.652;21.272;2023-10-08T15:37:37;3.10;;;1.20;;
71513;SDS011;59335;46.652;21.272;2023-10-08T15:40:43;3.00;;;1.30;;
71513;SDS011;59335;46.652;21.272;2023-10-08T15:43:50;3.33;;;1.52;;
71513;SDS011;59335;46.652;21.272;2023-10-08T15:46:54;3.00;;;1.30;;
71513;SDS011;59335;46.652;21.272;2023-10-08T15:49:58;3.42;;;1.27;;
71513;SDS011;59335;46.652;21.272;2023-10-08T15:53:02;2.72;;;1.23;;
71513;SDS011;59335;46.652;21.272;2023-10-08T15:56:07;2.80;;;1.30;;
71513;SDS011;59335;46.652;21.272;2023-10-08T15:59:11;3.92;;;1.45;;
71513;SDS011;59335;46.652;21.272;2023-10-08T16:02:16;3.50;;;1.50;;
71513;SDS011;59335;46.652;21.272;2023-10-08T16:05:20;4.07;;;1.65;;
71513;SDS011;59335;46.652;21.272;2023-10-08T16:08:25;3.72;;;1.60;;
71513;SDS011;59335;46.652;21.272;2023-10-08T16:11:29;3.23;;;1.43;;
71513;SDS011;59335;46.652;21.272;2023-10-08T16:14:35;3.33;;;1.50;;
71513;SDS011;59335;46.652;21.272;2023-10-08T16:17:43;2.83;;;1.10;;
71513;SDS011;59335;46.652;21.272;2023-10-08T16:20:48;3.88;;;1.60;;
71513;SDS011;59335;46.652;21.272;2023-10-08T16:23:53;3.80;;;1.60;;
71513;SDS011;59335;46.652;21.272;2023-10-08T16:27:01;3.40;;;1.50;;
71513;SDS011;59335;46.652;21.272;2023-10-08T16:30:05;3.03;;;1.42;;
71513;SDS011;59335;46.652;21.272;2023-10-08T16:33:14;3.17;;;1.27;;
71513;SDS011;59335;46.652;21.272;2023-10-08T16:36:18;4.55;;;1.50;;
71513;SDS011;59335;46.652;21.272;2023-10-08T16:39:23;3.35;;;1.33;;
71513;SDS011;59335;46.652;21.272;2023-10-08T16:42:31;3.27;;;1.20;;
71513;SDS011;59335;46.652;21.272;2023-10-08T16:45:35;3.33;;;1.63;;
71513;SDS011;59335;46.652;21.272;2023-10-08T16:48:39;3.17;;;1.27;;
71513;SDS011;59335;46.652;21.272;2023-10-08T16:51:53;3.42;;;1.30;;
71513;SDS011;59335;46.652;21.272;2023-10-08T16:54:57;3.13;;;1.42;;
71513;SDS011;59335;46.652;21.272;2023-10-08T16:58:00;2.77;;;1.20;;
71513;SDS011;59335;46.652;21.272;2023-10-08T17:01:18;2.60;;;1.00;;
71513;SDS011;59335;46.652;21.272;2023-10-08T17:04:23;3.17;;;1.25;;
71513;SDS011;59335;46.652;21.272;2023-10-08T17:07:31;3.13;;;1.40;;
71513;SDS011;59335;46.652;21.272;2023-10-08T17:10:43;3.55;;;1.65;;
71513;SDS011;59335;46.652;21.272;2023-10-08T17:14:00;2.80;;;1.13;;
71513;SDS011;59335;46.652;21.272;2023-10-08T17:17:19;4.32;;;1.40;;
71513;SDS011;59335;46.652;21.272;2023-10-08T17:20:51;3.25;;;1.52;;
71513;SDS011;59335;46.652;21.272;2023-10-08T17:24:17;3.15;;;1.50;;
71513;SDS011;59335;46.652;21.272;2023-10-08T17:27:28;3.22;;;1.40;;
71513;SDS011;59335;46.652;21.272;2023-10-08T17:30:48;3.03;;;1.30;;
71513;SDS011;59335;46.652;21.272;2023-10-08T17:34:27;3.47;;;1.33;;
71513;SDS011;59335;46.652;21.272;2023-10-08T17:37:52;3.35;;;1.40;;
71513;SDS011;59335;46.652;21.272;2023-10-08T17:40:58;3.28;;;1.52;;
71513;SDS011;59335;46.652;21.272;2023-10-08T17:47:55;2.83;;;1.30;;
71513;SDS011;59335;46.652;21.272;2023-10-08T17:51:35;4.03;;;1.73;;
71513;SDS011;59335;46.652;21.272;2023-10-08T17:54:53;3.45;;;1.40;;
71513;SDS011;59335;46.652;21.272;2023-10-08T17:58:01;3.50;;;1.42;;
71513;SDS011;59335;46.652;21.272;2023-10-08T18:01:42;3.40;;;1.45;;
71513;SDS011;59335;46.652;21.272;2023-10-08T18:04:49;3.37;;;1.30;;
71513;SDS011;59335;46.652;21.272;2023-10-08T18:12:36;2.88;;;1.35;;
71513;SDS011;59335;46.652;21.272;2023-10-08T18:15:51;2.83;;;1.30;;
71513;SDS011;59335;46.652;21.272;2023-10-08T18:19:22;3.60;;;1.40;;
71513;SDS011;59335;46.652;21.272;2023-10-08T18:22:31;3.00;;;1.40;;
71513;SDS011;59335;46.652;21.272;2023-10-08T18:25:41;3.72;;;1.30;;
71513;SDS011;59335;46.652;21.272;2023-10-08T18:28:45;2.53;;;1.23;;
71513;SDS011;59335;46.652;21.272;2023-10-08T18:31:50;2.97;;;1.30;;
71513;SDS011;59335;46.652;21.272;2023-10-08T18:34:55;3.45;;;1.40;;
71513;SDS011;59335;46.652;21.272;2023-10-08T18:38:00;2.97;;;1.13;;
71513;SDS011;59335;46.652;21.272;2023-10-08T18:41:08;3.25;;;1.25;;
71513;SDS011;59335;46.652;21.272;2023-10-08T18:44:16;2.50;;;1.13;;
71513;SDS011;59335;46.652;21.272;2023-10-08T18:47:20;3.70;;;1.40;;
71513;SDS011;59335;46.652;21.272;2023-10-08T18:50:27;2.55;;;1.20;;